sensor_id;sensor_type;location;lat;lon;timestamp;P1;durP1;ratioP1;P2;durP2;ratioP2
72037;SDS011;59900;50.788;12.904;2023-05-10T00:01:12;6.73;;;3.27;;
72037;SDS011;59900;50.788;12.904;2023-05-10T00:03:38;6.67;;;3.43;;
72037;SDS011;59900;50.788;12.904;2023-05-10T00:06:03;7.00;;;3.37;;
72037;SDS011;59900;50.788;12.904;2023-05-10T00:08:28;6.60;;;3.53;;
72037;SDS011;59900;50.788;12.904;2023-05-10T00:10:53;8.90;;;3.27;;
72037;SDS011;59900;50.788;12.904;2023-05-10T00:13:19;6.10;;;3.17;;
72037;SDS011;59900;50.788;12.904;2023-05-10T00:15:44;6.20;;;3.27;;
72037;SDS011;59900;50.788;12.904;2023-05-10T00:18:09;6.57;;;3.43;;
72037;SDS011;59900;50.788;12.904;2023-05-10T00:20:35;6.67;;;3.00;;
72037;SDS011;59900;50.788;12.904;2023-05-10T00:23:00;5.73;;;3.20;;
72037;SDS011;59900;50.788;12.904;2023-05-10T00:25:25;5.93;;;3.10;;
72037;SDS011;59900;50.788;12.904;2023-05-10T00:27:51;6.23;;;3.20;;
72037;SDS011;59900;50.788;12.904;2023-05-10T00:30:16;7.63;;;3.60;;
72037;SDS011;59900;50.788;12.904;2023-05-10T00:32:42;8.63;;;3.07;;
72037;SDS011;59900;50.788;12.904;2023-05-10T00:35:08;6.82;;;3.30;;
72037;SDS011;59900;50.788;12.904;2023-05-10T00:37:33;7.00;;;3.67;;
72037;SDS011;59900;50.788;12.904;2023-05-10T00:39:59;6.57;;;3.20;;
72037;SDS011;59900;50.788;12.904;2023-05-10T00:42:24;7.07;;;3.17;;
72037;SDS011;59900;50.788;12.904;2023-05-10T00:44:49;5.93;;;3.33;;
72037;SDS011;59900;50.788;12.904;2023-05-10T00:47:15;6.50;;;3.30;;
72037;SDS011;59900;50.788;12.904;2023-05-10T00:49:41;10.82;;;3.72;;
72037;SDS011;59900;50.788;12.904;2023-05-10T00:52:08;6.57;;;3.72;;
72037;SDS011;59900;50.788;12.904;2023-05-10T00:54:33;7.38;;;3.40;;
72037;SDS011;59900;50.788;12.904;2023-05-10T00:56:58;8.77;;;3.50;;
72037;SDS011;59900;50.788;12.904;2023-05-10T00:59:24;5.90;;;3.17;;
72037;SDS011;59900;50.788;12.904;2023-05-10T01:01:49;6.60;;;3.50;;
72037;SDS011;59900;50.788;12.904;2023-05-10T01:04:16;6.97;;;3.10;;
72037;SDS011;59900;50.788;12.904;2023-05-10T01:06:42;6.53;;;3.37;;
72037;SDS011;59900;50.788;12.904;2023-05-10T01:09:08;7.05;;;3.08;;
72037;SDS011;59900;50.788;12.904;2023-05-10T01:11:34;6.57;;;3.20;;
72037;SDS011;59900;50.788;12.904;2023-05-10T01:14:00;5.72;;;3.13;;
72037;SDS011;59900;50.788;12.904;2023-05-10T01:16:27;7.38;;;3.40;;
72037;SDS011;59900;50.788;12.904;2023-05-10T01:18:54;6.40;;;3.30;;
72037;SDS011;59900;50.788;12.904;2023-05-10T01:21:28;6.75;;;3.05;;
72037;SDS011;59900;50.788;12.904;2023-05-10T01:24:09;6.55;;;3.30;;
72037;SDS011;59900;50.788;12.904;2023-05-10T01:26:55;7.53;;;3.40;;
72037;SDS011;59900;50.788;12.904;2023-05-10T01:29:41;6.57;;;3.13;;
72037;SDS011;59900;50.788;12.904;2023-05-10T01:34:56;7.45;;;3.20;;
72037;SDS011;59900;50.788;12.904;2023-05-10T01:37:42;9.60;;;3.55;;
72037;SDS011;59900;50.788;12.904;2023-05-10T01:42:54;6.40;;;3.20;;
72037;SDS011;59900;50.788;12.904;2023-05-10T01:45:45;7.97;;;3.72;;
72037;SDS011;59900;50.788;12.904;2023-05-10T01:48:15;6.90;;;3.40;;
72037;SDS011;59900;50.788;12.904;2023-05-10T01:50:43;7.43;;;3.50;;
72037;SDS011;59900;50.788;12.904;2023-05-10T01:53:11;6.87;;;3.50;;
72037;SDS011;59900;50.788;12.904;2023-05-10T01:55:43;6.05;;;3.00;;
72037;SDS011;59900;50.788;12.904;2023-05-10T01:58:31;6.78;;;3.72;;
72037;SDS011;59900;50.788;12.904;2023-05-10T02:00:57;8.70;;;3.75;;
72037;SDS011;59900;50.788;12.904;2023-05-10T02:03:26;8.25;;;3.40;;
72037;SDS011;59900;50.788;12.904;2023-05-10T02:05:53;7.27;;;3.17;;
72037;SDS011;59900;50.788;12.904;2023-05-10T02:08:20;7.63;;;3.00;;
72037;SDS011;59900;50.788;12.904;2023-05-10T02:10:46;6.78;;;3.20;;
72037;SDS011;59900;50.788;12.904;2023-05-10T02:13:13;8.13;;;3.45;;
72037;SDS011;59900;50.788;12.904;2023-05-10T02:15:40;6.55;;;3.38;;
72037;SDS011;59900;50.788;12.904;2023-05-10T02:18:06;5.83;;;3.00;;
72037;SDS011;59900;50.788;12.904;2023-05-10T02:20:34;6.78;;;3.40;;
72037;SDS011;59900;50.788;12.904;2023-05-10T02:23:00;6.03;;;3.15;;
72037;SDS011;59900;50.788;12.904;2023-05-10T02:25:28;7.18;;;3.50;;
72037;SDS011;59900;50.788;12.904;2023-05-10T02:27:55;6.83;;;3.03;;
72037;SDS011;59900;50.788;12.904;2023-05-10T02:30:22;8.30;;;3.35;;
72037;SDS011;59900;50.788;12.904;2023-05-10T02:32:49;7.10;;;3.50;;
72037;SDS011;59900;50.788;12.904;2023-05-10T02:35:15;7.60;;;3.13;;
72037;SDS011;59900;50.788;12.904;2023-05-10T02:37:41;6.77;;;3.43;;
72037;SDS011;59900;50.788;12.904;2023-05-10T02:40:07;6.35;;;3.10;;
72037;SDS011;59900;50.788;12.904;2023-05-10T02:42:35;8.05;;;3.70;;
72037;SDS011;59900;50.788;12.904;2023-05-10T02:45:04;8.73;;;3.40;;
72037;SDS011;59900;50.788;12.904;2023-05-10T02:47:32;7.47;;;3.57;;
72037;SDS011;59900;50.788;12.904;2023-05-10T02:49:58;7.35;;;3.55;;
72037;SDS011;59900;50.788;12.904;2023-05-10T02:52:24;10.27;;;3.60;;
72037;SDS011;59900;50.788;12.904;2023-05-10T02:54:54;6.72;;;3.15;;
72037;SDS011;59900;50.788;12.904;2023-05-10T02:57:22;7.60;;;2.93;;
72037;SDS011;59900;50.788;12.904;2023-05-10T02:59:52;5.75;;;3.15;;
72037;SDS011;59900;50.788;12.904;2023-05-10T03:02:17;7.63;;;3.53;;
72037;SDS011;59900;50.788;12.904;2023-05-10T03:04:43;7.32;;;3.72;;
72037;SDS011;59900;50.788;12.904;2023-05-10T03:07:08;6.20;;;2.90;;
72037;SDS011;59900;50.788;12.904;2023-05-10T03:09:33;7.50;;;3.30;;
72037;SDS011;59900;50.788;12.904;2023-05-10T03:20:30;7.07;;;3.38;;
72037;SDS011;59900;50.788;12.904;2023-05-10T03:23:01;6.83;;;3.30;;
72037;SDS011;59900;50.788;12.904;2023-05-10T03:25:32;6.15;;;3.03;;
72037;SDS011;59900;50.788;12.904;2023-05-10T03:27:58;7.80;;;3.80;;
72037;SDS011;59900;50.788;12.904;2023-05-10T03:30:26;8.77;;;3.35;;
72037;SDS011;59900;50.788;12.904;2023-05-10T03:32:52;7.82;;;3.40;;
72037;SDS011;59900;50.788;12.904;2023-05-10T03:35:18;7.60;;;3.33;;
72037;SDS011;59900;50.788;12.904;2023-05-10T03:37:43;7.93;;;4.00;;
72037;SDS011;59900;50.788;12.904;2023-05-10T03:40:08;7.27;;;3.30;;
72037;SDS011;59900;50.788;12.904;2023-05-10T03:42:34;7.73;;;3.70;;
72037;SDS011;59900;50.788;12.904;2023-05-10T03:44:59;6.37;;;3.33;;
72037;SDS011;59900;50.788;12.904;2023-05-10T03:47:24;8.63;;;3.60;;
72037;SDS011;59900;50.788;12.904;2023-05-10T03:49:50;6.73;;;3.10;;
72037;SDS011;59900;50.788;12.904;2023-05-10T03:52:15;7.60;;;3.70;;
72037;SDS011;59900;50.788;12.904;2023-05-10T03:54:40;6.93;;;3.10;;
72037;SDS011;59900;50.788;12.904;2023-05-10T03:57:06;9.17;;;3.40;;
72037;SDS011;59900;50.788;12.904;2023-05-10T03:59:31;6.10;;;3.43;;
72037;SDS011;59900;50.788;12.904;2023-05-10T04:01:56;7.07;;;3.50;;
72037;SDS011;59900;50.788;12.904;2023-05-10T04:04:21;7.53;;;3.27;;
72037;SDS011;59900;50.788;12.904;2023-05-10T04:06:48;6.47;;;3.47;;
72037;SDS011;59900;50.788;12.904;2023-05-10T04:09:13;6.83;;;3.30;;
72037;SDS011;59900;50.788;12.904;2023-05-10T04:11:38;6.88;;;3.25;;
72037;SDS011;59900;50.788;12.904;2023-05-10T04:14:04;7.73;;;3.67;;
72037;SDS011;59900;50.788;12.904;2023-05-10T04:16:29;6.70;;;3.27;;
72037;SDS011;59900;50.788;12.904;2023-05-10T04:18:54;7.80;;;3.70;;
72037;SDS011;59900;50.788;12.904;2023-05-10T04:21:19;6.90;;;3.30;;
72037;SDS011;59900;50.788;12.904;2023-05-10T04:23:45;8.30;;;3.67;;
72037;SDS011;59900;50.788;12.904;2023-05-10T04:26:10;7.27;;;3.63;;
72037;SDS011;59900;50.788;12.904;2023-05-10T04:28:35;9.60;;;3.90;;
72037;SDS011;59900;50.788;12.904;2023-05-10T04:31:04;9.00;;;3.93;;
72037;SDS011;59900;50.788;12.904;2023-05-10T04:33:30;10.15;;;3.10;;
72037;SDS011;59900;50.788;12.904;2023-05-10T04:35:55;8.00;;;3.43;;
72037;SDS011;59900;50.788;12.904;2023-05-10T04:38:21;7.50;;;3.50;;
72037;SDS011;59900;50.788;12.904;2023-05-10T04:40:46;8.97;;;3.20;;
72037;SDS011;59900;50.788;12.904;2023-05-10T04:43:11;6.23;;;2.80;;
72037;SDS011;59900;50.788;12.904;2023-05-10T04:45:37;10.47;;;3.50;;
72037;SDS011;59900;50.788;12.904;2023-05-10T04:48:02;7.37;;;3.20;;
72037;SDS011;59900;50.788;12.904;2023-05-10T04:50:27;6.53;;;3.17;;
72037;SDS011;59900;50.788;12.904;2023-05-10T04:52:53;9.30;;;3.30;;
72037;SDS011;59900;50.788;12.904;2023-05-10T04:55:19;6.07;;;3.37;;
72037;SDS011;59900;50.788;12.904;2023-05-10T04:57:44;10.57;;;3.27;;
72037;SDS011;59900;50.788;12.904;2023-05-10T05:00:10;7.33;;;3.20;;
72037;SDS011;59900;50.788;12.904;2023-05-10T05:02:35;7.95;;;3.40;;
72037;SDS011;59900;50.788;12.904;2023-05-10T05:05:01;6.90;;;3.50;;
72037;SDS011;59900;50.788;12.904;2023-05-10T05:07:26;6.67;;;2.93;;
72037;SDS011;59900;50.788;12.904;2023-05-10T05:09:51;6.20;;;3.43;;
72037;SDS011;59900;50.788;12.904;2023-05-10T05:12:16;7.33;;;3.13;;
72037;SDS011;59900;50.788;12.904;2023-05-10T05:14:42;11.53;;;3.33;;
72037;SDS011;59900;50.788;12.904;2023-05-10T05:17:07;8.63;;;2.80;;
72037;SDS011;59900;50.788;12.904;2023-05-10T05:19:33;9.15;;;3.40;;
72037;SDS011;59900;50.788;12.904;2023-05-10T05:21:58;7.13;;;2.73;;
72037;SDS011;59900;50.788;12.904;2023-05-10T05:24:23;6.27;;;3.60;;
72037;SDS011;59900;50.788;12.904;2023-05-10T05:26:49;6.37;;;3.07;;
72037;SDS011;59900;50.788;12.904;2023-05-10T05:29:14;6.80;;;3.50;;
72037;SDS011;59900;50.788;12.904;2023-05-10T05:31:39;5.50;;;3.03;;
72037;SDS011;59900;50.788;12.904;2023-05-10T05:34:04;7.40;;;2.90;;
72037;SDS011;59900;50.788;12.904;2023-05-10T05:36:30;6.20;;;3.00;;
72037;SDS011;59900;50.788;12.904;2023-05-10T05:38:56;6.47;;;3.08;;
72037;SDS011;59900;50.788;12.904;2023-05-10T05:41:22;6.78;;;3.25;;
72037;SDS011;59900;50.788;12.904;2023-05-10T05:43:48;7.35;;;3.35;;
72037;SDS011;59900;50.788;12.904;2023-05-10T05:46:13;6.77;;;3.23;;
72037;SDS011;59900;50.788;12.904;2023-05-10T05:48:39;6.20;;;3.27;;
72037;SDS011;59900;50.788;12.904;2023-05-10T05:51:04;5.90;;;2.90;;
72037;SDS011;59900;50.788;12.904;2023-05-10T05:53:29;5.30;;;2.67;;
72037;SDS011;59900;50.788;12.904;2023-05-10T05:55:55;7.57;;;3.10;;
72037;SDS011;59900;50.788;12.904;2023-05-10T05:58:22;6.00;;;3.00;;
72037;SDS011;59900;50.788;12.904;2023-05-10T06:00:48;7.70;;;3.07;;
72037;SDS011;59900;50.788;12.904;2023-05-10T06:03:13;5.67;;;2.83;;
72037;SDS011;59900;50.788;12.904;2023-05-10T06:05:38;6.00;;;3.17;;
72037;SDS011;59900;50.788;12.904;2023-05-10T06:08:03;5.77;;;3.10;;
72037;SDS011;59900;50.788;12.904;2023-05-10T06:10:29;6.00;;;2.90;;
72037;SDS011;59900;50.788;12.904;2023-05-10T06:12:55;7.17;;;3.10;;
72037;SDS011;59900;50.788;12.904;2023-05-10T06:15:20;6.90;;;3.25;;
72037;SDS011;59900;50.788;12.904;2023-05-10T06:17:46;6.00;;;2.73;;
72037;SDS011;59900;50.788;12.904;2023-05-10T06:20:12;6.68;;;3.10;;
72037;SDS011;59900;50.788;12.904;2023-05-10T06:22:37;9.10;;;3.03;;
72037;SDS011;59900;50.788;12.904;2023-05-10T06:25:03;6.27;;;2.97;;
72037;SDS011;59900;50.788;12.904;2023-05-10T06:27:28;5.90;;;3.10;;
72037;SDS011;59900;50.788;12.904;2023-05-10T06:29:53;5.47;;;2.93;;
72037;SDS011;59900;50.788;12.904;2023-05-10T06:32:18;6.33;;;3.20;;
72037;SDS011;59900;50.788;12.904;2023-05-10T06:34:44;9.70;;;3.33;;
72037;SDS011;59900;50.788;12.904;2023-05-10T06:37:09;7.40;;;3.20;;
72037;SDS011;59900;50.788;12.904;2023-05-10T06:39:34;6.30;;;3.17;;
72037;SDS011;59900;50.788;12.904;2023-05-10T06:42:00;7.87;;;2.93;;
72037;SDS011;59900;50.788;12.904;2023-05-10T06:44:26;7.13;;;2.97;;
72037;SDS011;59900;50.788;12.904;2023-05-10T06:46:51;7.47;;;3.27;;
72037;SDS011;59900;50.788;12.904;2023-05-10T06:49:18;8.40;;;3.10;;
72037;SDS011;59900;50.788;12.904;2023-05-10T06:51:43;7.53;;;3.30;;
72037;SDS011;59900;50.788;12.904;2023-05-10T06:54:08;8.00;;;2.93;;
72037;SDS011;59900;50.788;12.904;2023-05-10T06:56:34;7.73;;;2.87;;
72037;SDS011;59900;50.788;12.904;2023-05-10T06:58:59;7.10;;;3.47;;
72037;SDS011;59900;50.788;12.904;2023-05-10T07:01:24;9.50;;;4.03;;
72037;SDS011;59900;50.788;12.904;2023-05-10T07:03:49;7.50;;;3.10;;
72037;SDS011;59900;50.788;12.904;2023-05-10T07:06:15;7.72;;;2.72;;
72037;SDS011;59900;50.788;12.904;2023-05-10T07:08:40;5.80;;;3.00;;
72037;SDS011;59900;50.788;12.904;2023-05-10T07:11:06;6.77;;;3.13;;
72037;SDS011;59900;50.788;12.904;2023-05-10T07:13:35;6.45;;;3.05;;
72037;SDS011;59900;50.788;12.904;2023-05-10T07:16:01;6.20;;;3.00;;
72037;SDS011;59900;50.788;12.904;2023-05-10T07:18:27;5.55;;;3.00;;
72037;SDS011;59900;50.788;12.904;2023-05-10T07:20:52;6.57;;;3.03;;
72037;SDS011;59900;50.788;12.904;2023-05-10T07:23:18;6.88;;;3.53;;
72037;SDS011;59900;50.788;12.904;2023-05-10T07:25:47;5.77;;;3.03;;
72037;SDS011;59900;50.788;12.904;2023-05-10T07:28:14;7.65;;;3.70;;
72037;SDS011;59900;50.788;12.904;2023-05-10T07:30:40;9.18;;;3.42;;
72037;SDS011;59900;50.788;12.904;2023-05-10T07:33:06;8.48;;;3.45;;
72037;SDS011;59900;50.788;12.904;2023-05-10T07:35:32;6.78;;;3.20;;
72037;SDS011;59900;50.788;12.904;2023-05-10T07:37:57;8.77;;;3.20;;
72037;SDS011;59900;50.788;12.904;2023-05-10T07:40:22;6.67;;;3.00;;
72037;SDS011;59900;50.788;12.904;2023-05-10T07:42:48;5.53;;;3.17;;
72037;SDS011;59900;50.788;12.904;2023-05-10T07:45:13;6.60;;;3.20;;
72037;SDS011;59900;50.788;12.904;2023-05-10T07:47:38;6.17;;;3.40;;
72037;SDS011;59900;50.788;12.904;2023-05-10T07:50:04;6.23;;;3.43;;
72037;SDS011;59900;50.788;12.904;2023-05-10T07:52:29;7.05;;;3.17;;
72037;SDS011;59900;50.788;12.904;2023-05-10T07:54:55;6.77;;;3.40;;
72037;SDS011;59900;50.788;12.904;2023-05-10T07:57:21;6.30;;;3.50;;
72037;SDS011;59900;50.788;12.904;2023-05-10T07:59:47;8.40;;;3.50;;
72037;SDS011;59900;50.788;12.904;2023-05-10T08:02:12;8.10;;;3.38;;
72037;SDS011;59900;50.788;12.904;2023-05-10T08:04:37;7.33;;;3.00;;
72037;SDS011;59900;50.788;12.904;2023-05-10T08:07:03;8.10;;;3.40;;
72037;SDS011;59900;50.788;12.904;2023-05-10T08:09:28;7.30;;;3.30;;
72037;SDS011;59900;50.788;12.904;2023-05-10T08:11:53;7.53;;;3.77;;
72037;SDS011;59900;50.788;12.904;2023-05-10T08:14:18;6.80;;;3.13;;
72037;SDS011;59900;50.788;12.904;2023-05-10T08:16:44;7.72;;;2.88;;
72037;SDS011;59900;50.788;12.904;2023-05-10T08:19:09;7.10;;;3.20;;
72037;SDS011;59900;50.788;12.904;2023-05-10T08:21:35;11.83;;;3.53;;
72037;SDS011;59900;50.788;12.904;2023-05-10T08:24:00;7.47;;;3.55;;
72037;SDS011;59900;50.788;12.904;2023-05-10T08:26:26;8.60;;;3.17;;
72037;SDS011;59900;50.788;12.904;2023-05-10T08:28:51;7.37;;;3.20;;
72037;SDS011;59900;50.788;12.904;2023-05-10T08:31:17;7.53;;;3.10;;
72037;SDS011;59900;50.788;12.904;2023-05-10T08:33:43;6.28;;;3.35;;
72037;SDS011;59900;50.788;12.904;2023-05-10T08:36:08;7.43;;;3.20;;
72037;SDS011;59900;50.788;12.904;2023-05-10T08:38:33;6.77;;;3.03;;
72037;SDS011;59900;50.788;12.904;2023-05-10T08:40:58;6.70;;;3.00;;
72037;SDS011;59900;50.788;12.904;2023-05-10T08:43:27;6.03;;;3.30;;
72037;SDS011;59900;50.788;12.904;2023-05-10T08:45:56;5.82;;;3.13;;
72037;SDS011;59900;50.788;12.904;2023-05-10T08:48:24;7.93;;;3.45;;
72037;SDS011;59900;50.788;12.904;2023-05-10T08:50:52;6.55;;;3.28;;
72037;SDS011;59900;50.788;12.904;2023-05-10T08:53:19;8.30;;;3.70;;
72037;SDS011;59900;50.788;12.904;2023-05-10T08:55:46;6.80;;;3.35;;
72037;SDS011;59900;50.788;12.904;2023-05-10T08:58:12;6.95;;;3.65;;
72037;SDS011;59900;50.788;12.904;2023-05-10T09:00:37;9.00;;;3.73;;
72037;SDS011;59900;50.788;12.904;2023-05-10T09:03:03;8.03;;;3.80;;
72037;SDS011;59900;50.788;12.904;2023-05-10T09:05:29;8.88;;;3.72;;
72037;SDS011;59900;50.788;12.904;2023-05-10T09:07:54;8.23;;;3.70;;
72037;SDS011;59900;50.788;12.904;2023-05-10T09:10:20;9.50;;;5.23;;
72037;SDS011;59900;50.788;12.904;2023-05-10T09:12:46;11.13;;;6.40;;
72037;SDS011;59900;50.788;12.904;2023-05-10T09:15:14;8.60;;;3.85;;
72037;SDS011;59900;50.788;12.904;2023-05-10T09:17:41;8.55;;;3.65;;
72037;SDS011;59900;50.788;12.904;2023-05-10T09:20:07;8.90;;;3.97;;
72037;SDS011;59900;50.788;12.904;2023-05-10T09:22:33;9.70;;;3.80;;
72037;SDS011;59900;50.788;12.904;2023-05-10T09:25:09;6.57;;;3.30;;
72037;SDS011;59900;50.788;12.904;2023-05-10T09:27:36;7.05;;;3.60;;
72037;SDS011;59900;50.788;12.904;2023-05-10T09:30:02;8.80;;;4.10;;
72037;SDS011;59900;50.788;12.904;2023-05-10T09:35:11;7.63;;;3.63;;
72037;SDS011;59900;50.788;12.904;2023-05-10T09:37:41;6.87;;;3.97;;
72037;SDS011;59900;50.788;12.904;2023-05-10T09:40:19;10.73;;;3.85;;
72037;SDS011;59900;50.788;12.904;2023-05-10T09:42:52;8.55;;;4.07;;
72037;SDS011;59900;50.788;12.904;2023-05-10T09:45:33;9.60;;;3.85;;
72037;SDS011;59900;50.788;12.904;2023-05-10T09:48:00;9.38;;;3.95;;
72037;SDS011;59900;50.788;12.904;2023-05-10T09:50:27;10.07;;;4.87;;
72037;SDS011;59900;50.788;12.904;2023-05-10T09:52:53;10.40;;;5.75;;
72037;SDS011;59900;50.788;12.904;2023-05-10T09:55:22;11.02;;;5.32;;
72037;SDS011;59900;50.788;12.904;2023-05-10T09:57:50;8.57;;;3.97;;
72037;SDS011;59900;50.788;12.904;2023-05-10T10:00:24;10.77;;;4.50;;
72037;SDS011;59900;50.788;12.904;2023-05-10T10:02:56;8.35;;;4.68;;
72037;SDS011;59900;50.788;12.904;2023-05-10T10:05:35;7.90;;;4.13;;
72037;SDS011;59900;50.788;12.904;2023-05-10T10:08:02;7.40;;;4.25;;
72037;SDS011;59900;50.788;12.904;2023-05-10T10:10:29;9.70;;;4.70;;
72037;SDS011;59900;50.788;12.904;2023-05-10T10:12:56;9.20;;;4.47;;
72037;SDS011;59900;50.788;12.904;2023-05-10T10:15:22;8.37;;;4.17;;
72037;SDS011;59900;50.788;12.904;2023-05-10T10:17:48;8.75;;;3.88;;
72037;SDS011;59900;50.788;12.904;2023-05-10T10:20:15;8.20;;;4.10;;
72037;SDS011;59900;50.788;12.904;2023-05-10T10:22:41;8.75;;;4.47;;
72037;SDS011;59900;50.788;12.904;2023-05-10T10:25:08;8.95;;;4.47;;
72037;SDS011;59900;50.788;12.904;2023-05-10T10:36:04;9.40;;;3.80;;
72037;SDS011;59900;50.788;12.904;2023-05-10T10:39:07;7.43;;;3.78;;
72037;SDS011;59900;50.788;12.904;2023-05-10T10:57:25;7.15;;;4.07;;
72037;SDS011;59900;50.788;12.904;2023-05-10T11:02:49;8.02;;;4.05;;
72037;SDS011;59900;50.788;12.904;2023-05-10T11:05:33;9.05;;;4.22;;
72037;SDS011;59900;50.788;12.904;2023-05-10T11:10:52;8.93;;;4.43;;
72037;SDS011;59900;50.788;12.904;2023-05-10T11:16:12;10.02;;;4.50;;
72037;SDS011;59900;50.788;12.904;2023-05-10T11:18:39;8.05;;;4.45;;
72037;SDS011;59900;50.788;12.904;2023-05-10T11:21:05;8.27;;;4.07;;
72037;SDS011;59900;50.788;12.904;2023-05-10T11:26:07;7.45;;;3.40;;
72037;SDS011;59900;50.788;12.904;2023-05-10T11:28:34;10.88;;;4.20;;
72037;SDS011;59900;50.788;12.904;2023-05-10T11:31:05;7.53;;;3.97;;
72037;SDS011;59900;50.788;12.904;2023-05-10T11:33:31;8.90;;;4.13;;
72037;SDS011;59900;50.788;12.904;2023-05-10T11:36:10;11.63;;;4.70;;
72037;SDS011;59900;50.788;12.904;2023-05-10T11:38:36;11.38;;;4.50;;
72037;SDS011;59900;50.788;12.904;2023-05-10T11:41:01;11.73;;;4.97;;
72037;SDS011;59900;50.788;12.904;2023-05-10T11:43:26;10.77;;;4.80;;
72037;SDS011;59900;50.788;12.904;2023-05-10T11:45:55;11.88;;;5.18;;
72037;SDS011;59900;50.788;12.904;2023-05-10T11:48:20;9.20;;;5.00;;
72037;SDS011;59900;50.788;12.904;2023-05-10T11:50:48;9.40;;;4.90;;
72037;SDS011;59900;50.788;12.904;2023-05-10T11:53:14;8.43;;;4.83;;
72037;SDS011;59900;50.788;12.904;2023-05-10T11:55:39;7.23;;;3.97;;
72037;SDS011;59900;50.788;12.904;2023-05-10T11:58:04;9.03;;;4.67;;
72037;SDS011;59900;50.788;12.904;2023-05-10T12:00:30;8.33;;;5.00;;
72037;SDS011;59900;50.788;12.904;2023-05-10T12:02:56;9.30;;;4.63;;
72037;SDS011;59900;50.788;12.904;2023-05-10T12:05:22;11.03;;;4.50;;
72037;SDS011;59900;50.788;12.904;2023-05-10T12:07:47;8.67;;;4.70;;
72037;SDS011;59900;50.788;12.904;2023-05-10T12:10:13;8.50;;;4.83;;
72037;SDS011;59900;50.788;12.904;2023-05-10T12:12:44;8.13;;;4.35;;
72037;SDS011;59900;50.788;12.904;2023-05-10T12:15:16;8.43;;;4.68;;
72037;SDS011;59900;50.788;12.904;2023-05-10T12:17:43;8.53;;;4.53;;
72037;SDS011;59900;50.788;12.904;2023-05-10T12:20:18;8.85;;;5.03;;
72037;SDS011;59900;50.788;12.904;2023-05-10T12:22:55;8.88;;;4.55;;
72037;SDS011;59900;50.788;12.904;2023-05-10T12:25:22;10.50;;;5.65;;
72037;SDS011;59900;50.788;12.904;2023-05-10T12:27:56;9.60;;;4.97;;
72037;SDS011;59900;50.788;12.904;2023-05-10T12:30:22;9.37;;;4.67;;
72037;SDS011;59900;50.788;12.904;2023-05-10T12:32:52;8.48;;;4.53;;
72037;SDS011;59900;50.788;12.904;2023-05-10T12:35:18;8.70;;;4.78;;
72037;SDS011;59900;50.788;12.904;2023-05-10T12:37:47;11.77;;;4.15;;
72037;SDS011;59900;50.788;12.904;2023-05-10T12:40:12;8.93;;;5.00;;
72037;SDS011;59900;50.788;12.904;2023-05-10T12:42:38;8.43;;;4.63;;
72037;SDS011;59900;50.788;12.904;2023-05-10T12:45:04;9.63;;;4.80;;
72037;SDS011;59900;50.788;12.904;2023-05-10T12:47:31;9.15;;;4.20;;
72037;SDS011;59900;50.788;12.904;2023-05-10T12:49:57;9.35;;;4.60;;
72037;SDS011;59900;50.788;12.904;2023-05-10T12:52:23;8.27;;;4.47;;
72037;SDS011;59900;50.788;12.904;2023-05-10T12:54:49;10.55;;;5.15;;
72037;SDS011;59900;50.788;12.904;2023-05-10T12:57:14;9.17;;;5.43;;
72037;SDS011;59900;50.788;12.904;2023-05-10T12:59:39;8.37;;;4.60;;
72037;SDS011;59900;50.788;12.904;2023-05-10T13:02:05;8.02;;;4.93;;
72037;SDS011;59900;50.788;12.904;2023-05-10T13:04:31;8.20;;;4.90;;
72037;SDS011;59900;50.788;12.904;2023-05-10T13:06:56;8.57;;;5.13;;
72037;SDS011;59900;50.788;12.904;2023-05-10T13:09:23;9.10;;;4.80;;
72037;SDS011;59900;50.788;12.904;2023-05-10T13:11:49;9.77;;;4.85;;
72037;SDS011;59900;50.788;12.904;2023-05-10T13:14:15;8.23;;;4.83;;
72037;SDS011;59900;50.788;12.904;2023-05-10T13:16:40;9.27;;;5.23;;
72037;SDS011;59900;50.788;12.904;2023-05-10T13:19:05;12.37;;;6.60;;
72037;SDS011;59900;50.788;12.904;2023-05-10T13:21:31;9.50;;;5.47;;
72037;SDS011;59900;50.788;12.904;2023-05-10T13:23:56;10.07;;;5.50;;
72037;SDS011;59900;50.788;12.904;2023-05-10T13:26:21;10.10;;;5.47;;
72037;SDS011;59900;50.788;12.904;2023-05-10T13:28:46;9.50;;;5.47;;
72037;SDS011;59900;50.788;12.904;2023-05-10T13:31:13;10.63;;;5.68;;
72037;SDS011;59900;50.788;12.904;2023-05-10T13:33:38;9.53;;;5.50;;
72037;SDS011;59900;50.788;12.904;2023-05-10T13:36:04;10.20;;;5.27;;
72037;SDS011;59900;50.788;12.904;2023-05-10T13:38:31;9.75;;;5.40;;
72037;SDS011;59900;50.788;12.904;2023-05-10T13:40:56;8.87;;;5.10;;
72037;SDS011;59900;50.788;12.904;2023-05-10T13:43:21;9.90;;;4.90;;
72037;SDS011;59900;50.788;12.904;2023-05-10T13:45:46;8.27;;;4.70;;
72037;SDS011;59900;50.788;12.904;2023-05-10T13:48:11;7.70;;;4.40;;
72037;SDS011;59900;50.788;12.904;2023-05-10T13:50:37;8.30;;;4.67;;
72037;SDS011;59900;50.788;12.904;2023-05-10T13:53:03;8.23;;;4.95;;
72037;SDS011;59900;50.788;12.904;2023-05-10T13:55:28;11.03;;;5.13;;
72037;SDS011;59900;50.788;12.904;2023-05-10T13:57:53;11.77;;;4.90;;
72037;SDS011;59900;50.788;12.904;2023-05-10T14:00:19;12.47;;;5.00;;
72037;SDS011;59900;50.788;12.904;2023-05-10T14:02:44;9.10;;;4.53;;
72037;SDS011;59900;50.788;12.904;2023-05-10T14:05:09;8.03;;;5.03;;
72037;SDS011;59900;50.788;12.904;2023-05-10T14:07:35;9.40;;;4.80;;
72037;SDS011;59900;50.788;12.904;2023-05-10T14:10:00;11.07;;;5.20;;
72037;SDS011;59900;50.788;12.904;2023-05-10T14:12:25;10.13;;;4.83;;
72037;SDS011;59900;50.788;12.904;2023-05-10T14:14:54;8.18;;;5.10;;
72037;SDS011;59900;50.788;12.904;2023-05-10T14:17:23;8.85;;;4.93;;
72037;SDS011;59900;50.788;12.904;2023-05-10T14:19:48;8.20;;;4.77;;
72037;SDS011;59900;50.788;12.904;2023-05-10T14:22:13;8.23;;;4.57;;
72037;SDS011;59900;50.788;12.904;2023-05-10T14:24:38;8.87;;;4.40;;
72037;SDS011;59900;50.788;12.904;2023-05-10T14:27:03;10.33;;;5.27;;
72037;SDS011;59900;50.788;12.904;2023-05-10T14:29:29;11.17;;;5.60;;
72037;SDS011;59900;50.788;12.904;2023-05-10T14:31:54;7.70;;;4.43;;
72037;SDS011;59900;50.788;12.904;2023-05-10T14:34:19;9.00;;;4.50;;
72037;SDS011;59900;50.788;12.904;2023-05-10T14:36:45;7.77;;;4.73;;
72037;SDS011;59900;50.788;12.904;2023-05-10T14:39:10;7.63;;;4.40;;
72037;SDS011;59900;50.788;12.904;2023-05-10T14:41:37;7.63;;;4.72;;
72037;SDS011;59900;50.788;12.904;2023-05-10T14:44:04;10.73;;;5.90;;
72037;SDS011;59900;50.788;12.904;2023-05-10T14:46:29;9.05;;;5.00;;
72037;SDS011;59900;50.788;12.904;2023-05-10T14:48:55;7.90;;;4.20;;
72037;SDS011;59900;50.788;12.904;2023-05-10T14:51:20;7.37;;;3.87;;
72037;SDS011;59900;50.788;12.904;2023-05-10T14:53:46;7.28;;;4.07;;
72037;SDS011;59900;50.788;12.904;2023-05-10T14:56:13;7.13;;;4.53;;
72037;SDS011;59900;50.788;12.904;2023-05-10T14:58:38;7.13;;;4.10;;
72037;SDS011;59900;50.788;12.904;2023-05-10T15:01:03;8.00;;;4.17;;
72037;SDS011;59900;50.788;12.904;2023-05-10T15:03:28;8.17;;;4.23;;
72037;SDS011;59900;50.788;12.904;2023-05-10T15:05:54;7.37;;;4.47;;
72037;SDS011;59900;50.788;12.904;2023-05-10T15:08:20;8.90;;;4.45;;
72037;SDS011;59900;50.788;12.904;2023-05-10T15:10:46;8.27;;;4.50;;
72037;SDS011;59900;50.788;12.904;2023-05-10T15:13:11;8.23;;;3.80;;
72037;SDS011;59900;50.788;12.904;2023-05-10T15:15:36;7.30;;;4.53;;
72037;SDS011;59900;50.788;12.904;2023-05-10T15:18:02;7.90;;;3.90;;
72037;SDS011;59900;50.788;12.904;2023-05-10T15:20:27;7.30;;;3.93;;
72037;SDS011;59900;50.788;12.904;2023-05-10T15:22:52;8.17;;;4.60;;